Time;durP1;ratioP1;P1;durP2;ratioP2;P2;SDS_P1;SDS_P2;PMS_P1;PMS_P2;Temp;Humidity;BMP_temperature;BMP_pressure;BME280_temperature;BME280_humidity;BME280_pressure;Samples;Min_cycle;Max_cycle;Signal;HPM_P1;HPM_P2
2022/02/08 00:01:54;;;;;;;;;;;;;;;6.25;100.00;99926.13;5049212;28;19920;-61
2022/02/08 00:04:22;;;;;;;;;;;;;;;6.77;100.00;99906.44;5050066;28;20011;-59
2022/02/08 00:06:48;;;;;;;;;;;;;;;6.68;100.00;99910.75;5049870;28;19920;-61
2022/02/08 00:09:15;;;;;;;;;;;;;;;6.30;100.00;99907.38;5050228;28;19917;-60
2022/02/08 00:11:41;;;;;;;;;;;;;;;6.19;100.00;99903.09;5049860;28;19917;-60
2022/02/08 00:14:06;;;;;;;;;;;;;;;6.24;100.00;99903.94;5049722;28;19921;-59
2022/02/08 00:16:32;;;;;;;;;;;;;;;6.64;100.00;99898.81;5049659;28;19917;-62
2022/02/08 00:18:59;;;;;;;;;;;;;;;6.69;100.00;99891.13;5049858;28;20190;-60
2022/02/08 00:21:27;;;;;;;;;;;;;;;6.59;100.00;99894.53;5049532;28;20496;-61
2022/02/08 00:23:55;;;;;;;;;;;;;;;6.16;100.00;99895.44;5050180;28;19920;-61
2022/02/08 00:26:24;;;;;;;;;;;;;;;6.28;100.00;99890.28;5031207;28;19921;-61
2022/02/08 00:28:49;;;;;;;;;;;;;;;5.99;100.00;99886.88;5049939;28;20402;-61
2022/02/08 00:31:15;;;;;;;;;;;;;;;6.14;100.00;99876.66;5049868;28;19963;-61
2022/02/08 00:33:40;;;;;;;;;;;;;;;6.11;100.00;99881.75;5049577;28;20001;-60
2022/02/08 00:36:08;;;;;;;;;;;;;;;5.96;100.00;99871.56;5048147;28;19966;-60
2022/02/08 00:38:35;;;;;;;;;;;;;;;6.27;100.00;99886.03;5029580;28;19920;-61
2022/02/08 00:41:01;;;;;;;;;;;;;;;6.45;100.00;99869.84;5048601;28;19913;-62
2022/02/08 00:43:33;;;;;;;;;;;;;;;6.35;100.00;99880.06;5030565;28;19921;-61
2022/02/08 00:46:13;;;;;;;;;;;;;;;6.19;100.00;99874.94;5049006;28;19931;-61
2022/02/08 00:48:43;;;;;;;;;;;;;;;6.24;100.00;99868.13;5048866;28;19942;-62
2022/02/08 00:51:10;;;;;;;;;;;;;;;6.61;100.00;99874.91;5030277;28;19951;-62
2022/02/08 00:53:36;;;;;;;;;;;;;;;6.26;100.00;99884.31;5049377;28;19913;-62
2022/02/08 00:56:01;;;;;;;;;;;;;;;6.34;100.00;99876.66;5031544;28;19978;-61
2022/02/08 00:58:30;;;;;;;;;;;;;;;6.72;100.00;99880.00;5049179;28;20011;-60
2022/02/08 01:00:57;;;;;;;;;;;;;;;6.85;100.00;99867.19;5048358;28;19948;-62
2022/02/08 01:03:25;;;;;;;;;;;;;;;6.92;100.00;99875.69;5048875;28;20371;-62
2022/02/08 01:06:02;;;;;;;;;;;;;;;6.79;100.00;99866.34;5048596;28;19928;-62
2022/02/08 01:08:32;;;;;;;;;;;;;;;6.69;100.00;99866.38;5048600;28;19941;-62
2022/02/08 01:10:58;;;;;;;;;;;;;;;6.61;100.00;99868.06;5046675;28;19928;-62
2022/02/08 01:13:26;;;;;;;;;;;;;;;6.92;100.00;99852.66;5048513;28;19920;-61
2022/02/08 01:15:55;;;;;;;;;;;;;;;6.51;100.00;99861.28;5049168;28;19917;-61
2022/02/08 01:18:20;;;;;;;;;;;;;;;6.18;100.00;99863.03;5048990;28;20485;-59
2022/02/08 01:20:46;;;;;;;;;;;;;;;6.82;100.00;99856.06;5048366;28;19957;-61
2022/02/08 01:23:12;;;;;;;;;;;;;;;6.62;100.00;99859.56;5048468;28;19952;-61
2022/02/08 01:25:46;;;;;;;;;;;;;;;7.02;100.00;99863.69;5048276;28;19931;-62
2022/02/08 01:30:47;;;;;;;;;;;;;;;6.02;100.00;99851.06;5048125;28;19921;-60
2022/02/08 01:38:53;;;;;;;;;;;;;;;6.58;100.00;99859.56;5048559;28;19978;-61
2022/02/08 01:41:35;;;;;;;;;;;;;;;6.69;100.00;99861.25;5032333;28;19927;-62
2022/02/08 01:44:19;;;;;;;;;;;;;;;6.52;100.00;99873.22;5048219;28;19974;-61
2022/02/08 01:49:28;;;;;;;;;;;;;;;6.62;100.00;99866.38;5047932;28;20365;-62
2022/02/08 01:51:55;;;;;;;;;;;;;;;6.24;100.00;99883.47;5048370;28;19913;-61
2022/02/08 01:54:20;;;;;;;;;;;;;;;6.41;100.00;99880.91;5030253;28;20038;-60
2022/02/08 01:56:46;;;;;;;;;;;;;;;6.23;100.00;99894.56;5048211;28;19913;-61
2022/02/08 01:59:11;;;;;;;;;;;;;;;5.90;100.00;99902.19;5043332;28;19955;-62
2022/02/08 02:01:37;;;;;;;;;;;;;;;5.77;100.00;99902.16;5030221;28;19917;-61
2022/02/08 02:04:02;;;;;;;;;;;;;;;6.03;99.20;99929.50;5048480;28;19917;-60
2022/02/08 02:06:30;;;;;;;;;;;;;;;6.20;94.07;99937.19;5048329;28;19928;-61
2022/02/08 02:08:59;;;;;;;;;;;;;;;6.48;92.08;99953.41;5048011;28;19980;-61
2022/02/08 02:11:24;;;;;;;;;;;;;;;6.87;90.25;99978.13;5030410;28;20277;-60
2022/02/08 02:14:16;;;;;;;;;;;;;;;7.05;90.54;99987.50;5047878;28;19997;-60
2022/02/08 02:16:58;;;;;;;;;;;;;;;6.69;91.68;99991.78;5046895;28;19968;-61
2022/02/08 02:19:27;;;;;;;;;;;;;;;6.41;90.40;100002.84;5047604;28;19917;-61
2022/02/08 02:21:52;;;;;;;;;;;;;;;6.18;89.40;100001.16;5029672;28;19924;-61
2022/02/08 02:24:20;;;;;;;;;;;;;;;6.53;86.27;100013.13;5048368;28;19917;-61
2022/02/08 02:26:45;;;;;;;;;;;;;;;6.51;85.21;100019.94;5048102;28;19932;-60
2022/02/08 02:29:14;;;;;;;;;;;;;;;6.26;84.80;100025.00;5048477;28;19913;-60
2022/02/08 02:31:41;;;;;;;;;;;;;;;6.14;82.34;100039.50;5046586;28;19991;-61
2022/02/08 02:34:09;;;;;;;;;;;;;;;6.75;79.85;100036.16;5030097;28;20298;-60
2022/02/08 02:36:38;;;;;;;;;;;;;;;6.61;79.81;100044.66;5047894;28;20370;-62
2022/02/08 02:39:06;;;;;;;;;;;;;;;6.24;77.93;100054.84;5048243;28;19913;-61
2022/02/08 02:41:39;;;;;;;;;;;;;;;5.63;76.98;100059.69;5029958;28;19981;-60
2022/02/08 02:44:05;;;;;;;;;;;;;;;5.91;70.30;100087.94;5047531;28;19987;-61
2022/02/08 02:46:33;;;;;;;;;;;;;;;6.08;67.22;100105.09;5047770;28;19927;-60
2022/02/08 02:48:58;;;;;;;;;;;;;;;6.37;66.22;100123.97;5029454;28;20519;-62
2022/02/08 02:51:25;;;;;;;;;;;;;;;6.44;64.60;100130.81;5047842;28;19917;-62
2022/02/08 02:53:50;;;;;;;;;;;;;;;6.64;63.62;100124.03;5046909;28;20390;-62
2022/02/08 02:56:16;;;;;;;;;;;;;;;6.73;63.16;100122.34;5026826;28;19967;-61
2022/02/08 02:58:41;;;;;;;;;;;;;;;6.65;64.36;100118.06;5047624;28;20004;-62
2022/02/08 03:03:50;;;;;;;;;;;;;;;6.41;64.19;100121.44;5050537;28;20287;-61
2022/02/08 03:20:02;;;;;;;;;;;;;;;6.67;62.58;100121.47;4989174;28;19937;-61
2022/02/08 03:22:33;;;;;;;;;;;;;;;7.16;61.13;100125.81;4989137;28;19962;-61
2022/02/08 03:25:02;;;;;;;;;;;;;;;6.54;62.54;100124.84;4989280;28;19918;-62
2022/02/08 03:27:28;;;;;;;;;;;;;;;6.42;61.72;100124.84;4988367;28;20022;-62
2022/02/08 03:29:56;;;;;;;;;;;;;;;6.50;61.23;100130.84;4988819;28;19949;-61
2022/02/08 03:32:23;;;;;;;;;;;;;;;6.95;58.93;100129.19;4989341;28;20008;-61
2022/02/08 03:34:48;;;;;;;;;;;;;;;6.38;61.34;100139.31;4989363;28;20419;-61
2022/02/08 03:37:18;;;;;;;;;;;;;;;6.47;59.99;100131.66;4989377;28;20009;-62
2022/02/08 03:39:55;;;;;;;;;;;;;;;6.48;58.85;100105.25;4987652;28;19932;-61
2022/02/08 03:42:25;;;;;;;;;;;;;;;6.87;57.11;100120.66;4989619;28;19924;-61
2022/02/08 03:44:55;;;;;;;;;;;;;;;6.92;56.36;100129.19;4988134;28;19914;-62
2022/02/08 03:47:21;;;;;;;;;;;;;;;6.42;58.72;100112.88;5033122;28;19920;-62
2022/02/08 03:49:49;;;;;;;;;;;;;;;6.46;57.52;100104.38;5050982;28;19924;-62
2022/02/08 03:52:15;;;;;;;;;;;;;;;6.80;56.07;100099.31;5050548;28;19952;-62
2022/02/08 03:54:40;;;;;;;;;;;;;;;7.09;55.45;100117.28;5050830;28;20462;-61
2022/02/08 03:57:10;;;;;;;;;;;;;;;7.18;56.48;100120.66;5050643;28;19920;-61
2022/02/08 03:59:35;;;;;;;;;;;;;;;7.14;56.32;100109.59;5050883;28;19925;-62
2022/02/08 04:06:58;;;;;;;;;;;;;;;6.80;55.67;100086.53;5050538;28;19916;-61
2022/02/08 04:09:23;;;;;;;;;;;;;;;6.80;55.50;100081.41;5032355;28;19916;-62
2022/02/08 04:12:14;;;;;;;;;;;;;;;6.90;55.25;100065.16;5050477;28;20000;-62
2022/02/08 04:19:49;;;;;;;;;;;;;;;6.48;53.37;100040.41;5029980;28;19921;-62
2022/02/08 04:33:52;;;;;;;;;;;;;;;7.36;48.06;100071.97;5094588;22;19939;-88
2022/02/08 04:49:31;;;;;;;;;;;;;;;6.89;46.57;100012.25;5024625;28;19921;-62
2022/02/08 04:52:03;;;;;;;;;;;;;;;7.22;45.72;100014.78;5006923;28;19921;-61
2022/02/08 05:52:33;;;;;;;;;;;;;;;7.39;29.44;99977.16;5046478;28;19920;-60
2022/02/08 06:13:26;;;;;;;;;;;;;;;7.28;26.84;99958.41;5049143;28;19965;-60
2022/02/08 06:15:59;;;;;;;;;;;;;;;7.23;26.21;99960.09;5038356;28;19917;-60
2022/02/08 06:18:26;;;;;;;;;;;;;;;7.19;26.55;99953.31;5050748;28;20287;-58
2022/02/08 06:20:55;;;;;;;;;;;;;;;7.63;24.46;99970.22;5041019;28;19917;-60
2022/02/08 06:23:20;;;;;;;;;;;;;;;7.43;24.57;99967.72;5049381;28;19921;-60
2022/02/08 06:25:48;;;;;;;;;;;;;;;7.30;23.36;99961.81;5048032;28;21014;-60
2022/02/08 06:28:16;;;;;;;;;;;;;;;7.80;24.04;99958.19;5048999;28;19923;-60
2022/02/08 06:30:41;;;;;;;;;;;;;;;7.39;25.27;99948.97;5049157;28;19962;-62
2022/02/08 06:33:07;;;;;;;;;;;;;;;7.53;23.65;99946.34;5050351;28;20358;-60
2022/02/08 06:35:33;;;;;;;;;;;;;;;7.49;21.23;99935.25;5045730;28;19920;-60
2022/02/08 06:38:00;;;;;;;;;;;;;;;7.60;20.17;99931.78;5042672;28;19955;-60
2022/02/08 06:40:26;;;;;;;;;;;;;;;7.95;20.41;99932.44;5051667;28;19966;-61
2022/02/08 06:42:54;;;;;;;;;;;;;;;7.49;22.45;99922.44;5063331;28;19928;-61
2022/02/08 06:45:19;;;;;;;;;;;;;;;7.38;22.57;99919.06;5064580;28;19916;-61
2022/02/08 06:47:50;;;;;;;;;;;;;;;7.89;21.11;99914.53;5064799;28;19920;-58
2022/02/08 06:50:19;;;;;;;;;;;;;;;7.40;21.37;99907.09;5070873;28;19913;-59
2022/02/08 06:52:44;;;;;;;;;;;;;;;7.67;20.99;99907.81;5053289;28;19917;-60
2022/02/08 06:55:10;;;;;;;;;;;;;;;7.54;23.90;99918.13;5070988;28;19916;-58
2022/02/08 06:58:19;;;;;;;;;;;;;;;7.45;21.70;99913.03;5071098;28;19912;-58
2022/02/08 07:00:30;;;;;;;;;;;;;;;7.82;20.72;99923.09;5049964;28;19921;-60
2022/02/08 07:02:56;;;;;;;;;;;;;;;7.53;19.99;99924.13;5064337;28;19953;-59
2022/02/08 07:05:23;;;;;;;;;;;;;;;7.79;19.90;99930.81;5045934;28;20286;-60
2022/02/08 07:14:01;;;;;;;;;;;;;;;8.13;18.77;99899.81;5064896;28;19916;-60
2022/02/08 07:16:30;;;;;;;;;;;;;;;7.85;17.09;99886.34;5063610;28;19916;-58
2022/02/08 07:18:56;;;;;;;;;;;;;;;7.95;18.61;99864.91;5029702;28;19921;-59
2022/02/08 07:21:21;;;;;;;;;;;;;;;7.84;16.91;99852.13;5045187;28;20007;-59
2022/02/08 07:32:50;;;;;;;;;;;;;;;7.89;16.66;99845.28;5063339;28;20385;-60
2022/02/08 07:38:31;;;;;;;;;;;;;;;7.83;17.64;99858.16;5062818;28;19923;-60
2022/02/08 08:22:52;;;;;;;;;;;;;;;7.99;13.76;99881.13;5061642;28;19959;-60
2022/02/08 09:02:18;;;;;;;;;;;;;;;8.26;11.63;99870.66;5062764;28;19916;-60
2022/02/08 09:05:12;;;;;;;;;;;;;;;8.34;11.43;99884.25;5063570;28;19920;-60
2022/02/08 09:07:42;;;;;;;;;;;;;;;8.41;11.71;99890.19;5062378;28;19951;-60
2022/02/08 09:10:09;;;;;;;;;;;;;;;8.76;10.35;99889.88;5046453;28;19912;-59
2022/02/08 09:15:44;;;;;;;;;;;;;;;8.70;9.27;99884.78;5062566;28;20073;-59
2022/02/08 09:21:20;;;;;;;;;;;;;;;8.88;8.87;99860.63;5045086;28;19943;-60
2022/02/08 09:26:32;;;;;;;;;;;;;;;9.13;9.86;99855.22;5062372;28;19928;-59
2022/02/08 09:29:05;;;;;;;;;;;;;;;8.56;8.61;99863.56;5047243;28;20419;-60
2022/02/08 09:53:08;;;;;;;;;;;;;;;9.33;7.07;99862.69;5062460;28;20370;-59
2022/02/08 10:02:18;;;;;;;;;;;;;;;9.34;8.44;99828.38;5059803;28;19928;-59
2022/02/08 10:23:26;;;;;;;;;;;;;;;9.00;12.19;99823.69;5062314;28;19924;-60
2022/02/08 10:26:03;;;;;;;;;;;;;;;9.43;11.43;99823.09;5043105;28;20309;-60
2022/02/08 10:28:50;;;;;;;;;;;;;;;8.99;11.40;99832.25;5042627;28;19920;-60
2022/02/08 10:39:26;;;;;;;;;;;;;;;9.70;12.20;99832.16;4969327;28;19968;-89
2022/02/08 10:41:52;;;;;;;;;;;;;;;9.18;13.56;99838.84;4963627;28;19922;-89
2022/02/08 10:44:18;;;;;;;;;;;;;;;9.24;13.05;99842.22;4997034;28;19930;-89
2022/02/08 10:46:43;;;;;;;;;;;;;;;9.76;12.15;99849.19;4980945;28;20021;-89
2022/02/08 10:49:10;;;;;;;;;;;;;;;9.42;13.88;99847.13;4996196;28;19996;-89
2022/02/08 10:51:44;;;;;;;;;;;;;;;9.54;12.82;99846.94;4980674;28;19986;-88
2022/02/08 10:54:16;;;;;;;;;;;;;;;9.52;14.31;99853.84;4980834;28;19954;-89
2022/02/08 10:56:57;;;;;;;;;;;;;;;9.57;13.48;99852.03;4995611;28;20081;-90
2022/02/08 10:59:28;;;;;;;;;;;;;;;9.62;13.27;99847.69;4995425;28;19966;-90
2022/02/08 11:02:17;;;;;;;;;;;;;;;9.81;14.36;99852.56;4994830;28;20393;-89
2022/02/08 11:07:41;;;;;;;;;;;;;;;9.39;16.99;99853.13;4978746;28;20356;-89
2022/02/08 11:10:56;;;;;;;;;;;;;;;10.11;15.87;99852.97;4977949;28;19924;-89
2022/02/08 11:13:14;;;;;;;;;;;;;;;9.68;17.17;99859.59;5016073;28;20341;-89
2022/02/08 11:15:45;;;;;;;;;;;;;;;9.98;17.77;99863.44;5029237;28;19976;-89
2022/02/08 11:20:51;;;;;;;;;;;;;;;9.46;19.09;99853.91;5060791;28;19916;-89
2022/02/08 11:23:26;;;;;;;;;;;;;;;9.96;18.33;99860.03;5029733;28;19963;-90
2022/02/08 11:25:53;;;;;;;;;;;;;;;9.95;19.42;99853.19;5048011;28;19916;-90
2022/02/08 11:28:28;;;;;;;;;;;;;;;10.11;20.48;99847.81;5047393;28;20307;-88
2022/02/08 11:31:05;;;;;;;;;;;;;;;10.29;21.35;99857.00;5060835;28;19920;-89
2022/02/08 11:34:03;;;;;;;;;;;;;;;9.92;24.32;99849.81;5023639;28;20036;-89
2022/02/08 11:44:56;;;;;;;;;;;;;;;10.15;29.11;99858.03;5040695;28;19991;-89
2022/02/08 11:47:51;;;;;;;;;;;;;;;10.04;31.38;99853.06;5043158;28;20380;-91
2022/02/08 11:50:40;;;;;;;;;;;;;;;10.48;29.81;99858.34;5040607;28;19925;-90
2022/02/08 11:56:14;;;;;;;;;;;;;;;10.09;36.52;99859.84;5028985;28;20361;-90
2022/02/08 12:01:44;;;;;;;;;;;;;;;10.23;36.07;99845.88;5042508;28;19921;-89
2022/02/08 12:04:30;;;;;;;;;;;;;;;10.40;36.29;99853.34;5026845;28;19928;-89
2022/02/08 12:10:22;;;;;;;;;;;;;;;10.92;35.73;99853.25;5027301;28;19920;-89
2022/02/08 12:31:42;;;;;;;;;;;;;;;10.34;40.29;99834.59;5041569;28;19966;-89
2022/02/08 12:34:42;;;;;;;;;;;;;;;10.26;41.71;99832.09;5034802;28;19929;-88
2022/02/08 12:56:09;;;;;;;;;;;;;;;10.77;45.32;99829.47;5011131;28;19917;-90
2022/02/08 12:59:37;;;;;;;;;;;;;;;10.41;47.09;99842.16;5013061;28;19921;-89
2022/02/08 13:01:52;;;;;;;;;;;;;;;10.96;45.91;99837.69;5016369;28;19979;-89
2022/02/08 13:04:32;;;;;;;;;;;;;;;10.48;47.14;99821.44;5012989;28;20024;-91
2022/02/08 14:07:02;;;;;;;;;;;;;;;10.85;59.56;99850.78;5011870;28;19944;-90
2022/02/08 14:17:24;;;;;;;;;;;;;;;10.73;58.08;99851.03;5021076;28;19960;-88
2022/02/08 14:19:46;;;;;;;;;;;;;;;11.06;59.24;99858.97;5011090;28;19917;-88
2022/02/08 14:22:19;;;;;;;;;;;;;;;10.39;59.61;99856.78;5024599;28;20004;-89
2022/02/08 15:07:26;;;;;;;;;;;;;;;10.99;55.02;99889.19;5027491;28;19947;-89
2022/02/08 15:13:30;;;;;;;;;;;;;;;10.23;59.44;99878.50;5003582;28;19913;-89
2022/02/08 15:19:43;;;;;;;;;;;;;;;;;;;;;
2022/02/08 15:22:50;;;;;;;;;;;;;;;10.45;63.85;99869.56;4982575;28;20392;-89
2022/02/08 15:25:30;;;;;;;;;;;;;;;;;;;;;
2022/02/08 15:28:02;;;;;;;;;;;;;;;10.84;61.82;99876.59;4986189;28;19926;-87
2022/02/08 15:30:48;;;;;;;;;;;;;;;10.71;63.24;99877.69;4970736;28;19922;-90
2022/02/08 15:33:16;;;;;;;;;;;;;;;10.80;66.49;99891.25;4958997;28;19927;-88
2022/02/08 15:35:42;;;;;;;;;;;;;;;10.92;67.64;99884.16;4959051;28;20046;-89
2022/02/08 15:38:07;;;;;;;;;;;;;;;10.75;70.31;99887.91;4963450;28;20024;-88
2022/02/08 15:40:33;;;;;;;;;;;;;;;10.44;68.92;99883.28;4962670;28;19918;-89
2022/02/08 15:42:58;;;;;;;;;;;;;;;10.50;69.37;99890.06;4998514;28;20388;-88
2022/02/08 15:45:35;;;;;;;;;;;;;;;10.77;70.11;99899.03;5027619;28;22085;-89
2022/02/08 15:48:00;;;;;;;;;;;;;;;10.53;65.42;99878.88;5028450;28;19932;-89
2022/02/08 15:53:37;;;;;;;;;;;;;;;10.64;64.21;99892.41;5035955;28;19924;-89
2022/02/08 16:00:09;;;;;;;;;;;;;;;10.50;70.45;99897.81;5010379;28;19917;-89
2022/02/08 16:01:29;;;;;;;;;;;;;;;10.20;68.76;99897.41;5014437;28;19970;-89
2022/02/08 16:09:29;;;;;;;;;;;;;;;10.78;67.43;99918.75;4982384;28;20016;-89
2022/02/08 16:28:03;;;;;;;;;;;;;;;10.50;65.31;99902.13;4946625;28;19933;-87
2022/02/08 16:50:03;;;;;;;;;;;;;;;10.40;61.66;99925.44;5059071;28;19963;-90
2022/02/08 16:52:50;;;;;;;;;;;;;;;10.78;61.07;99939.38;5033240;28;19917;-88
2022/02/08 16:55:30;;;;;;;;;;;;;;;10.12;62.62;99937.00;5032582;28;19916;-89
2022/02/08 16:58:10;;;;;;;;;;;;;;;10.58;60.53;99941.44;5031726;28;19970;-88
2022/02/08 17:00:36;;;;;;;;;;;;;;;10.58;60.33;99938.88;5046833;28;19994;-89
2022/02/08 17:03:06;;;;;;;;;;;;;;;10.13;61.38;99938.72;5030071;28;19982;-90
2022/02/08 17:05:31;;;;;;;;;;;;;;;10.95;58.89;99940.78;5060987;28;19916;-89
2022/02/08 17:07:57;;;;;;;;;;;;;;;10.16;60.79;99938.66;5062800;28;20299;-89
2022/02/08 17:10:36;;;;;;;;;;;;;;;10.40;60.27;99940.91;5030196;28;19912;-89
2022/02/08 17:48:20;;;;;;;;;;;;;;;10.79;55.53;99935.94;5057456;28;20291;-90
2022/02/08 17:50:47;;;;;;;;;;;;;;;10.22;60.25;99939.44;5039072;28;19924;-89
2022/02/08 17:53:13;;;;;;;;;;;;;;;10.18;56.29;99939.50;5041205;28;20399;-90
2022/02/08 17:55:38;;;;;;;;;;;;;;;10.67;52.48;99946.44;5041999;28;19963;-90
2022/02/08 17:58:26;;;;;;;;;;;;;;;10.51;52.62;99957.88;5060464;28;19917;-90
2022/02/08 18:01:02;;;;;;;;;;;;;;;;;;;;;
2022/02/08 18:06:46;;;;;;;;;;;;;;;10.62;47.65;99961.13;4977421;28;19926;-89
2022/02/08 18:09:39;;;;;;;;;;;;;;;10.32;49.70;99968.47;4958694;28;19953;-90
2022/02/08 19:12:27;;;;;;;;;;;;;;;10.41;28.92;99980.38;5039160;28;19920;-62
2022/02/08 19:23:47;;;;;;;;;;;;;;;10.73;25.99;99974.69;5044798;28;20412;-63
2022/02/08 19:26:21;;;;;;;;;;;;;;;10.23;24.76;99976.31;5048106;28;19929;-61
2022/02/08 19:28:46;;;;;;;;;;;;;;;10.67;21.64;99982.50;5052285;28;20061;-62
2022/02/08 19:31:12;;;;;;;;;;;;;;;10.54;24.62;99991.34;5022200;28;20406;-62
2022/02/08 19:42:51;;;;;;;;;;;;;;;10.51;19.32;100001.66;5046026;28;20057;-63
2022/02/08 20:13:05;;;;;;;;;;;;;;;10.78;29.66;99980.59;5033249;28;19934;-63
2022/02/08 20:15:31;;;;;;;;;;;;;;;10.30;34.34;99983.09;5065878;28;20294;-61
2022/02/08 20:18:00;;;;;;;;;;;;;;;10.30;31.76;99977.94;5022226;28;19925;-62
2022/02/08 20:20:27;;;;;;;;;;;;;;;10.28;29.92;99984.81;5037167;28;20577;-62
2022/02/08 20:23:00;;;;;;;;;;;;;;;10.64;29.58;99985.16;5039281;28;19912;-62
2022/02/08 20:31:32;;;;;;;;;;;;;;;10.15;33.65;99989.31;5044632;28;19924;-62
2022/02/08 20:33:57;;;;;;;;;;;;;;;10.56;31.86;99998.16;5033371;28;19917;-63
2022/02/08 20:36:23;;;;;;;;;;;;;;;10.23;33.47;99991.75;5048561;28;19920;-63
2022/02/08 20:38:49;;;;;;;;;;;;;;;10.36;34.41;99993.31;5051327;28;19913;-61
2022/02/08 20:44:18;;;;;;;;;;;;;;;10.84;33.29;99995.13;5037575;28;19983;-62
2022/02/08 20:46:54;;;;;;;;;;;;;;;10.23;39.82;100010.63;5048701;28;19948;-62
2022/02/08 20:49:19;;;;;;;;;;;;;;;10.61;34.29;100005.81;5038844;28;19922;-62
2022/02/08 20:51:46;;;;;;;;;;;;;;;10.25;34.85;100000.31;5046901;28;20345;-62
2022/02/08 20:54:13;;;;;;;;;;;;;;;10.17;37.53;100002.13;5028184;28;19913;-62
2022/02/08 21:02:59;;;;;;;;;;;;;;;10.59;38.11;100002.41;5034163;28;19957;-63
2022/02/08 21:07:51;;;;;;;;;;;;;;;9.95;34.04;100002.44;5046151;28;19924;-61
2022/02/08 21:10:17;;;;;;;;;;;;;;;10.11;32.43;100007.38;5050086;28;19917;-63
2022/02/08 21:12:50;;;;;;;;;;;;;;;9.68;34.84;100015.66;5025119;28;19924;-61
2022/02/08 21:15:16;;;;;;;;;;;;;;;10.38;28.52;100012.16;5040969;28;20039;-61
2022/02/08 21:17:41;;;;;;;;;;;;;;;10.08;30.71;100023.72;5043676;28;19987;-62
2022/02/08 21:20:10;;;;;;;;;;;;;;;10.36;31.50;100019.06;5042763;28;19921;-62
2022/02/08 21:51:50;;;;;;;;;;;;;;;10.01;39.49;100025.53;5022251;28;19967;-61
2022/02/08 21:54:16;;;;;;;;;;;;;;;10.44;35.27;100032.66;5016130;28;19958;-63
2022/02/08 21:56:41;;;;;;;;;;;;;;;10.02;36.49;100031.53;5026639;28;19921;-62
2022/02/08 21:59:07;;;;;;;;;;;;;;;10.27;37.35;100043.19;5009688;28;19921;-62
2022/02/08 22:01:36;;;;;;;;;;;;;;;9.83;36.93;100041.22;5026166;28;19936;-63
2022/02/08 22:04:05;;;;;;;;;;;;;;;9.44;37.19;100045.91;5034667;28;19913;-63
2022/02/08 22:06:38;;;;;;;;;;;;;;;10.40;32.80;100043.03;5034565;28;19917;-62
2022/02/08 22:09:07;;;;;;;;;;;;;;;10.26;36.82;100045.75;5059270;28;19974;-62
2022/02/08 22:22:52;;;;;;;;;;;;;;;9.82;37.32;100048.03;5007107;28;19928;-63
2022/02/08 22:25:34;;;;;;;;;;;;;;;10.00;37.99;100052.13;5006486;28;19956;-63
2022/02/08 22:28:22;;;;;;;;;;;;;;;9.95;36.31;100051.34;5012152;28;19921;-62
2022/02/08 22:30:59;;;;;;;;;;;;;;;10.17;37.82;100063.91;5006470;28;20288;-62
2022/02/08 22:39:57;;;;;;;;;;;;;;;10.17;46.05;100056.19;4986880;28;20506;-62
2022/02/08 22:42:27;;;;;;;;;;;;;;;10.40;47.34;100051.63;4991472;28;19922;-63
2022/02/08 22:45:11;;;;;;;;;;;;;;;9.83;48.70;100043.78;4987606;28;19992;-63
2022/02/08 22:47:41;;;;;;;;;;;;;;;10.64;45.14;100034.09;4967072;28;20307;-63
2022/02/08 22:53:31;;;;;;;;;;;;;;;10.94;56.52;100031.88;4984788;28;19997;-63
2022/02/08 23:02:06;;;;;;;;;;;;;;;10.22;63.39;100020.97;5022712;28;19917;-63
2022/02/08 23:04:32;;;;;;;;;;;;;;;10.28;59.33;100015.69;5020424;28;19913;-61
2022/02/08 23:06:59;;;;;;;;;;;;;;;9.98;60.85;100022.97;5042621;28;19978;-61
2022/02/08 23:14:48;;;;;;;;;;;;;;;10.54;57.68;100029.97;5040385;28;19967;-62
2022/02/08 23:38:53;;;;;;;;;;;;;;;9.95;66.02;100030.75;5042959;28;19920;-62
2022/02/08 23:41:19;;;;;;;;;;;;;;;9.98;66.11;100033.28;5046539;28;19912;-63
2022/02/08 23:43:46;;;;;;;;;;;;;;;10.46;60.49;100020.59;5044301;28;19921;-63
2022/02/08 23:46:13;;;;;;;;;;;;;;;9.88;63.59;100026.56;5040007;28;20008;-61
2022/02/08 23:48:47;;;;;;;;;;;;;;;10.44;65.49;100032.66;5042667;28;19913;-62
2022/02/08 23:51:18;;;;;;;;;;;;;;;9.85;66.13;100026.56;5045273;28;19917;-63
2022/02/08 23:53:55;;;;;;;;;;;;;;;10.31;64.51;100026.00;5044124;28;19946;-61
2022/02/08 23:56:41;;;;;;;;;;;;;;;10.14;66.59;100028.78;5044983;28;19913;-62
2022/02/08 23:59:10;;;;;;;;;;;;;;;10.23;63.26;100017.50;5042757;28;19970;-63
